sensor_id;sensor_type;location;lat;lon;timestamp;P1;durP1;ratioP1;P2;durP2;ratioP2
62863;SDS011;48954;59.950;11.014;2023-06-10T00:00:36;5.60;;;1.80;;
62863;SDS011;48954;59.950;11.014;2023-06-10T00:03:23;4.10;;;1.80;;
62863;SDS011;48954;59.950;11.014;2023-06-10T00:05:50;4.60;;;2.10;;
62863;SDS011;48954;59.950;11.014;2023-06-10T00:08:16;2.70;;;1.80;;
62863;SDS011;48954;59.950;11.014;2023-06-10T00:10:43;3.50;;;1.70;;
62863;SDS011;48954;59.950;11.014;2023-06-10T00:13:09;4.60;;;2.00;;
62863;SDS011;48954;59.950;11.014;2023-06-10T00:15:36;4.20;;;2.00;;
62863;SDS011;48954;59.950;11.014;2023-06-10T00:18:04;4.00;;;1.70;;
62863;SDS011;48954;59.950;11.014;2023-06-10T00:23:17;2.70;;;1.70;;
62863;SDS011;48954;59.950;11.014;2023-06-10T00:25:43;3.40;;;1.60;;
62863;SDS011;48954;59.950;11.014;2023-06-10T00:28:10;3.10;;;1.60;;
62863;SDS011;48954;59.950;11.014;2023-06-10T00:30:36;2.80;;;1.70;;
62863;SDS011;48954;59.950;11.014;2023-06-10T00:33:03;3.90;;;1.90;;
62863;SDS011;48954;59.950;11.014;2023-06-10T00:35:29;3.40;;;1.90;;
62863;SDS011;48954;59.950;11.014;2023-06-10T00:37:56;3.60;;;1.90;;
62863;SDS011;48954;59.950;11.014;2023-06-10T00:40:22;10.30;;;2.10;;
62863;SDS011;48954;59.950;11.014;2023-06-10T00:42:49;3.40;;;1.80;;
62863;SDS011;48954;59.950;11.014;2023-06-10T00:45:15;3.90;;;2.00;;
62863;SDS011;48954;59.950;11.014;2023-06-10T00:47:43;4.10;;;2.00;;
62863;SDS011;48954;59.950;11.014;2023-06-10T00:50:10;5.50;;;1.80;;
62863;SDS011;48954;59.950;11.014;2023-06-10T00:52:37;3.60;;;2.20;;
62863;SDS011;48954;59.950;11.014;2023-06-10T00:55:03;4.70;;;1.60;;
62863;SDS011;48954;59.950;11.014;2023-06-10T00:57:31;3.30;;;1.60;;
62863;SDS011;48954;59.950;11.014;2023-06-10T01:00:03;5.20;;;2.00;;
62863;SDS011;48954;59.950;11.014;2023-06-10T01:02:30;3.00;;;1.60;;
62863;SDS011;48954;59.950;11.014;2023-06-10T01:04:57;4.60;;;1.80;;
62863;SDS011;48954;59.950;11.014;2023-06-10T01:07:28;2.80;;;1.60;;
62863;SDS011;48954;59.950;11.014;2023-06-10T01:10:04;3.10;;;1.70;;
62863;SDS011;48954;59.950;11.014;2023-06-10T01:12:41;4.00;;;1.50;;
62863;SDS011;48954;59.950;11.014;2023-06-10T01:15:11;3.20;;;1.90;;
62863;SDS011;48954;59.950;11.014;2023-06-10T01:20:48;5.40;;;2.00;;
62863;SDS011;48954;59.950;11.014;2023-06-10T01:23:15;3.60;;;2.10;;
62863;SDS011;48954;59.950;11.014;2023-06-10T01:25:46;3.00;;;1.50;;
62863;SDS011;48954;59.950;11.014;2023-06-10T01:28:18;3.70;;;1.90;;
62863;SDS011;48954;59.950;11.014;2023-06-10T01:33:22;3.60;;;1.80;;
62863;SDS011;48954;59.950;11.014;2023-06-10T01:38:22;3.10;;;1.60;;
62863;SDS011;48954;59.950;11.014;2023-06-10T01:40:53;3.40;;;1.30;;
62863;SDS011;48954;59.950;11.014;2023-06-10T01:43:22;3.40;;;1.70;;
62863;SDS011;48954;59.950;11.014;2023-06-10T01:45:49;4.70;;;1.90;;
62863;SDS011;48954;59.950;11.014;2023-06-10T01:48:16;3.30;;;1.40;;
62863;SDS011;48954;59.950;11.014;2023-06-10T01:50:42;3.00;;;1.70;;
62863;SDS011;48954;59.950;11.014;2023-06-10T01:53:09;4.90;;;1.70;;
62863;SDS011;48954;59.950;11.014;2023-06-10T01:55:35;3.20;;;1.60;;
62863;SDS011;48954;59.950;11.014;2023-06-10T01:58:03;4.30;;;1.70;;
62863;SDS011;48954;59.950;11.014;2023-06-10T02:00:29;3.10;;;1.80;;
62863;SDS011;48954;59.950;11.014;2023-06-10T02:02:56;3.20;;;1.90;;
62863;SDS011;48954;59.950;11.014;2023-06-10T02:05:23;2.80;;;1.80;;
62863;SDS011;48954;59.950;11.014;2023-06-10T02:07:49;4.40;;;2.20;;
62863;SDS011;48954;59.950;11.014;2023-06-10T02:10:16;2.90;;;1.70;;
62863;SDS011;48954;59.950;11.014;2023-06-10T02:12:42;4.20;;;1.90;;
62863;SDS011;48954;59.950;11.014;2023-06-10T02:15:09;3.60;;;1.80;;
62863;SDS011;48954;59.950;11.014;2023-06-10T02:17:35;4.90;;;1.90;;
62863;SDS011;48954;59.950;11.014;2023-06-10T02:20:02;5.10;;;1.90;;
62863;SDS011;48954;59.950;11.014;2023-06-10T02:22:28;4.20;;;1.80;;
62863;SDS011;48954;59.950;11.014;2023-06-10T02:24:55;3.80;;;2.10;;
62863;SDS011;48954;59.950;11.014;2023-06-10T02:27:22;5.90;;;2.30;;
62863;SDS011;48954;59.950;11.014;2023-06-10T02:29:48;3.90;;;2.00;;
62863;SDS011;48954;59.950;11.014;2023-06-10T02:32:15;5.60;;;2.60;;
62863;SDS011;48954;59.950;11.014;2023-06-10T02:34:42;2.90;;;1.70;;
62863;SDS011;48954;59.950;11.014;2023-06-10T02:37:08;4.70;;;2.30;;
62863;SDS011;48954;59.950;11.014;2023-06-10T02:39:35;4.00;;;2.50;;
62863;SDS011;48954;59.950;11.014;2023-06-10T02:42:02;3.30;;;1.80;;
62863;SDS011;48954;59.950;11.014;2023-06-10T02:44:29;4.70;;;1.70;;
62863;SDS011;48954;59.950;11.014;2023-06-10T02:46:56;3.70;;;2.20;;
62863;SDS011;48954;59.950;11.014;2023-06-10T02:49:23;3.10;;;1.70;;
62863;SDS011;48954;59.950;11.014;2023-06-10T02:51:53;3.30;;;2.10;;
62863;SDS011;48954;59.950;11.014;2023-06-10T02:54:23;5.00;;;2.20;;
62863;SDS011;48954;59.950;11.014;2023-06-10T02:56:50;2.90;;;1.60;;
62863;SDS011;48954;59.950;11.014;2023-06-10T02:59:18;3.30;;;1.90;;
62863;SDS011;48954;59.950;11.014;2023-06-10T03:01:45;3.80;;;1.50;;
62863;SDS011;48954;59.950;11.014;2023-06-10T03:04:12;3.70;;;1.60;;
62863;SDS011;48954;59.950;11.014;2023-06-10T03:06:38;3.30;;;1.70;;
62863;SDS011;48954;59.950;11.014;2023-06-10T03:09:05;2.70;;;1.70;;
62863;SDS011;48954;59.950;11.014;2023-06-10T03:11:31;4.00;;;1.80;;
62863;SDS011;48954;59.950;11.014;2023-06-10T03:13:58;3.00;;;1.70;;
62863;SDS011;48954;59.950;11.014;2023-06-10T03:16:24;4.10;;;1.80;;
62863;SDS011;48954;59.950;11.014;2023-06-10T03:18:51;3.50;;;1.90;;
62863;SDS011;48954;59.950;11.014;2023-06-10T03:21:18;2.60;;;1.70;;
62863;SDS011;48954;59.950;11.014;2023-06-10T03:23:45;3.60;;;1.80;;
62863;SDS011;48954;59.950;11.014;2023-06-10T03:26:11;2.50;;;1.60;;
62863;SDS011;48954;59.950;11.014;2023-06-10T03:28:38;5.50;;;2.00;;
62863;SDS011;48954;59.950;11.014;2023-06-10T03:31:04;2.80;;;1.70;;
62863;SDS011;48954;59.950;11.014;2023-06-10T03:33:31;3.80;;;1.70;;
62863;SDS011;48954;59.950;11.014;2023-06-10T03:35:57;4.10;;;2.00;;
62863;SDS011;48954;59.950;11.014;2023-06-10T03:38:24;3.30;;;1.60;;
62863;SDS011;48954;59.950;11.014;2023-06-10T03:40:55;3.90;;;2.10;;
62863;SDS011;48954;59.950;11.014;2023-06-10T03:43:22;4.80;;;2.20;;
62863;SDS011;48954;59.950;11.014;2023-06-10T03:45:49;4.30;;;2.20;;
62863;SDS011;48954;59.950;11.014;2023-06-10T03:48:15;3.00;;;1.80;;
62863;SDS011;48954;59.950;11.014;2023-06-10T03:50:42;3.70;;;1.70;;
62863;SDS011;48954;59.950;11.014;2023-06-10T03:53:08;3.30;;;1.90;;
62863;SDS011;48954;59.950;11.014;2023-06-10T03:55:34;3.50;;;2.20;;
62863;SDS011;48954;59.950;11.014;2023-06-10T03:58:01;4.30;;;2.00;;
62863;SDS011;48954;59.950;11.014;2023-06-10T04:00:28;3.70;;;2.10;;
62863;SDS011;48954;59.950;11.014;2023-06-10T04:02:54;3.10;;;2.00;;
62863;SDS011;48954;59.950;11.014;2023-06-10T04:05:21;3.70;;;2.10;;
62863;SDS011;48954;59.950;11.014;2023-06-10T04:07:47;2.80;;;1.70;;
62863;SDS011;48954;59.950;11.014;2023-06-10T04:10:15;4.10;;;1.80;;
62863;SDS011;48954;59.950;11.014;2023-06-10T04:12:41;3.10;;;1.90;;
62863;SDS011;48954;59.950;11.014;2023-06-10T04:15:08;3.90;;;2.00;;
62863;SDS011;48954;59.950;11.014;2023-06-10T04:17:35;3.50;;;1.80;;
62863;SDS011;48954;59.950;11.014;2023-06-10T04:20:01;3.60;;;2.00;;
62863;SDS011;48954;59.950;11.014;2023-06-10T04:22:28;4.30;;;1.90;;
62863;SDS011;48954;59.950;11.014;2023-06-10T04:24:54;4.10;;;2.00;;
62863;SDS011;48954;59.950;11.014;2023-06-10T04:27:21;3.50;;;2.00;;
62863;SDS011;48954;59.950;11.014;2023-06-10T04:29:48;4.90;;;1.80;;
62863;SDS011;48954;59.950;11.014;2023-06-10T04:32:14;2.90;;;2.10;;
62863;SDS011;48954;59.950;11.014;2023-06-10T04:34:40;5.20;;;2.10;;
62863;SDS011;48954;59.950;11.014;2023-06-10T04:37:07;4.20;;;2.10;;
62863;SDS011;48954;59.950;11.014;2023-06-10T04:39:33;3.30;;;1.90;;
62863;SDS011;48954;59.950;11.014;2023-06-10T04:42:00;2.80;;;1.90;;
62863;SDS011;48954;59.950;11.014;2023-06-10T04:44:26;3.30;;;1.70;;
62863;SDS011;48954;59.950;11.014;2023-06-10T04:46:53;4.20;;;2.10;;
62863;SDS011;48954;59.950;11.014;2023-06-10T04:49:19;3.70;;;1.80;;
62863;SDS011;48954;59.950;11.014;2023-06-10T04:51:46;4.90;;;2.30;;
62863;SDS011;48954;59.950;11.014;2023-06-10T04:54:12;3.40;;;1.90;;
62863;SDS011;48954;59.950;11.014;2023-06-10T04:56:38;3.80;;;2.00;;
62863;SDS011;48954;59.950;11.014;2023-06-10T04:59:05;3.50;;;2.10;;
62863;SDS011;48954;59.950;11.014;2023-06-10T05:01:31;3.00;;;1.90;;
62863;SDS011;48954;59.950;11.014;2023-06-10T05:03:58;3.70;;;2.40;;
62863;SDS011;48954;59.950;11.014;2023-06-10T05:06:24;5.20;;;2.00;;
62863;SDS011;48954;59.950;11.014;2023-06-10T05:08:51;3.80;;;1.90;;
62863;SDS011;48954;59.950;11.014;2023-06-10T05:11:22;2.90;;;1.80;;
62863;SDS011;48954;59.950;11.014;2023-06-10T05:13:49;3.30;;;2.00;;
62863;SDS011;48954;59.950;11.014;2023-06-10T05:16:15;3.10;;;1.90;;
62863;SDS011;48954;59.950;11.014;2023-06-10T05:18:41;3.50;;;2.30;;
62863;SDS011;48954;59.950;11.014;2023-06-10T05:21:08;5.80;;;2.10;;
62863;SDS011;48954;59.950;11.014;2023-06-10T05:23:34;2.70;;;1.70;;
62863;SDS011;48954;59.950;11.014;2023-06-10T05:26:01;4.30;;;2.10;;
62863;SDS011;48954;59.950;11.014;2023-06-10T05:28:27;2.90;;;1.90;;
62863;SDS011;48954;59.950;11.014;2023-06-10T05:30:54;4.10;;;2.10;;
62863;SDS011;48954;59.950;11.014;2023-06-10T05:33:20;2.80;;;1.80;;
62863;SDS011;48954;59.950;11.014;2023-06-10T05:35:47;2.80;;;1.80;;
62863;SDS011;48954;59.950;11.014;2023-06-10T05:38:13;3.00;;;2.00;;
62863;SDS011;48954;59.950;11.014;2023-06-10T05:40:40;2.90;;;2.00;;
62863;SDS011;48954;59.950;11.014;2023-06-10T05:43:07;3.90;;;1.80;;
62863;SDS011;48954;59.950;11.014;2023-06-10T05:45:33;3.30;;;1.70;;
62863;SDS011;48954;59.950;11.014;2023-06-10T05:47:59;2.70;;;1.80;;
62863;SDS011;48954;59.950;11.014;2023-06-10T05:50:26;2.80;;;1.90;;
62863;SDS011;48954;59.950;11.014;2023-06-10T05:52:53;2.90;;;1.90;;
62863;SDS011;48954;59.950;11.014;2023-06-10T05:55:19;3.00;;;2.20;;
62863;SDS011;48954;59.950;11.014;2023-06-10T05:57:45;2.80;;;1.80;;
62863;SDS011;48954;59.950;11.014;2023-06-10T06:00:12;4.90;;;2.20;;
62863;SDS011;48954;59.950;11.014;2023-06-10T06:02:39;3.50;;;2.40;;
62863;SDS011;48954;59.950;11.014;2023-06-10T06:05:06;3.80;;;1.90;;
62863;SDS011;48954;59.950;11.014;2023-06-10T06:07:32;2.60;;;1.90;;
62863;SDS011;48954;59.950;11.014;2023-06-10T06:10:00;3.60;;;2.20;;
62863;SDS011;48954;59.950;11.014;2023-06-10T06:12:26;3.60;;;1.80;;
62863;SDS011;48954;59.950;11.014;2023-06-10T06:14:52;2.50;;;1.70;;
62863;SDS011;48954;59.950;11.014;2023-06-10T06:17:19;2.40;;;1.80;;
62863;SDS011;48954;59.950;11.014;2023-06-10T06:19:45;2.80;;;1.80;;
62863;SDS011;48954;59.950;11.014;2023-06-10T06:22:12;3.40;;;1.60;;
62863;SDS011;48954;59.950;11.014;2023-06-10T06:24:38;2.40;;;1.70;;
62863;SDS011;48954;59.950;11.014;2023-06-10T06:27:05;4.60;;;1.60;;
62863;SDS011;48954;59.950;11.014;2023-06-10T06:29:31;4.10;;;1.80;;
62863;SDS011;48954;59.950;11.014;2023-06-10T06:31:59;2.90;;;1.80;;
62863;SDS011;48954;59.950;11.014;2023-06-10T06:34:26;2.20;;;1.40;;
62863;SDS011;48954;59.950;11.014;2023-06-10T06:36:55;2.40;;;1.60;;
62863;SDS011;48954;59.950;11.014;2023-06-10T06:39:22;4.20;;;1.70;;
62863;SDS011;48954;59.950;11.014;2023-06-10T06:41:49;2.30;;;1.50;;
62863;SDS011;48954;59.950;11.014;2023-06-10T06:44:15;3.80;;;1.80;;
62863;SDS011;48954;59.950;11.014;2023-06-10T06:46:41;2.60;;;1.60;;
62863;SDS011;48954;59.950;11.014;2023-06-10T06:49:08;3.80;;;1.70;;
62863;SDS011;48954;59.950;11.014;2023-06-10T06:51:34;2.80;;;1.80;;
62863;SDS011;48954;59.950;11.014;2023-06-10T06:54:02;2.70;;;1.50;;
62863;SDS011;48954;59.950;11.014;2023-06-10T06:56:29;2.60;;;1.70;;
62863;SDS011;48954;59.950;11.014;2023-06-10T06:58:55;2.70;;;1.50;;
62863;SDS011;48954;59.950;11.014;2023-06-10T07:01:24;2.90;;;1.30;;
62863;SDS011;48954;59.950;11.014;2023-06-10T07:03:52;2.30;;;1.60;;
62863;SDS011;48954;59.950;11.014;2023-06-10T07:06:18;3.30;;;1.30;;
62863;SDS011;48954;59.950;11.014;2023-06-10T07:08:45;2.20;;;1.50;;
62863;SDS011;48954;59.950;11.014;2023-06-10T07:11:12;2.20;;;1.30;;
62863;SDS011;48954;59.950;11.014;2023-06-10T07:13:38;3.10;;;1.40;;
62863;SDS011;48954;59.950;11.014;2023-06-10T07:16:05;2.10;;;1.30;;
62863;SDS011;48954;59.950;11.014;2023-06-10T07:18:32;3.60;;;1.20;;
62863;SDS011;48954;59.950;11.014;2023-06-10T07:20:58;2.80;;;1.30;;
62863;SDS011;48954;59.950;11.014;2023-06-10T07:23:25;2.00;;;1.10;;
62863;SDS011;48954;59.950;11.014;2023-06-10T07:25:51;1.80;;;1.10;;
62863;SDS011;48954;59.950;11.014;2023-06-10T07:28:18;2.20;;;1.40;;
62863;SDS011;48954;59.950;11.014;2023-06-10T07:30:44;2.70;;;1.40;;
62863;SDS011;48954;59.950;11.014;2023-06-10T07:33:11;1.50;;;1.10;;
62863;SDS011;48954;59.950;11.014;2023-06-10T07:35:37;2.80;;;1.40;;
62863;SDS011;48954;59.950;11.014;2023-06-10T07:38:04;2.10;;;1.20;;
62863;SDS011;48954;59.950;11.014;2023-06-10T07:40:45;2.10;;;1.30;;
62863;SDS011;48954;59.950;11.014;2023-06-10T07:43:13;2.40;;;1.40;;
62863;SDS011;48954;59.950;11.014;2023-06-10T07:45:40;2.20;;;1.40;;
62863;SDS011;48954;59.950;11.014;2023-06-10T07:48:07;2.60;;;1.40;;
62863;SDS011;48954;59.950;11.014;2023-06-10T07:50:33;2.50;;;1.00;;
62863;SDS011;48954;59.950;11.014;2023-06-10T07:53:01;1.80;;;1.00;;
62863;SDS011;48954;59.950;11.014;2023-06-10T07:55:28;2.00;;;1.00;;
62863;SDS011;48954;59.950;11.014;2023-06-10T07:57:54;1.80;;;1.00;;
62863;SDS011;48954;59.950;11.014;2023-06-10T08:00:21;1.30;;;0.80;;
62863;SDS011;48954;59.950;11.014;2023-06-10T08:02:47;1.60;;;0.90;;
62863;SDS011;48954;59.950;11.014;2023-06-10T08:05:14;2.90;;;0.90;;
62863;SDS011;48954;59.950;11.014;2023-06-10T08:07:40;3.00;;;0.80;;
62863;SDS011;48954;59.950;11.014;2023-06-10T08:10:07;2.30;;;0.90;;
62863;SDS011;48954;59.950;11.014;2023-06-10T08:12:34;2.10;;;1.00;;
62863;SDS011;48954;59.950;11.014;2023-06-10T08:15:02;2.20;;;1.00;;
62863;SDS011;48954;59.950;11.014;2023-06-10T08:17:28;2.00;;;0.90;;
62863;SDS011;48954;59.950;11.014;2023-06-10T08:19:55;3.30;;;1.50;;
62863;SDS011;48954;59.950;11.014;2023-06-10T08:22:21;1.40;;;0.90;;
62863;SDS011;48954;59.950;11.014;2023-06-10T08:24:48;2.50;;;1.60;;
62863;SDS011;48954;59.950;11.014;2023-06-10T08:27:14;1.80;;;1.00;;
62863;SDS011;48954;59.950;11.014;2023-06-10T08:29:41;1.50;;;0.90;;
62863;SDS011;48954;59.950;11.014;2023-06-10T08:32:08;1.50;;;0.90;;
62863;SDS011;48954;59.950;11.014;2023-06-10T08:34:34;1.50;;;0.90;;
62863;SDS011;48954;59.950;11.014;2023-06-10T08:37:01;2.80;;;1.20;;
62863;SDS011;48954;59.950;11.014;2023-06-10T08:39:28;1.60;;;0.90;;
62863;SDS011;48954;59.950;11.014;2023-06-10T08:44:43;1.60;;;1.00;;
62863;SDS011;48954;59.950;11.014;2023-06-10T08:47:16;1.10;;;0.70;;
62863;SDS011;48954;59.950;11.014;2023-06-10T08:49:44;1.40;;;0.80;;
62863;SDS011;48954;59.950;11.014;2023-06-10T08:52:18;1.60;;;1.00;;
62863;SDS011;48954;59.950;11.014;2023-06-10T08:54:50;2.10;;;1.10;;
62863;SDS011;48954;59.950;11.014;2023-06-10T08:57:20;1.40;;;0.80;;
62863;SDS011;48954;59.950;11.014;2023-06-10T08:59:47;1.60;;;1.00;;
62863;SDS011;48954;59.950;11.014;2023-06-10T09:02:15;1.80;;;0.80;;
62863;SDS011;48954;59.950;11.014;2023-06-10T09:04:43;3.20;;;1.30;;
62863;SDS011;48954;59.950;11.014;2023-06-10T09:07:12;1.60;;;1.00;;
62863;SDS011;48954;59.950;11.014;2023-06-10T09:09:40;1.60;;;0.90;;
62863;SDS011;48954;59.950;11.014;2023-06-10T09:12:08;1.60;;;0.80;;
62863;SDS011;48954;59.950;11.014;2023-06-10T09:14:35;1.50;;;0.90;;
62863;SDS011;48954;59.950;11.014;2023-06-10T09:17:02;2.00;;;1.10;;
62863;SDS011;48954;59.950;11.014;2023-06-10T09:19:30;1.80;;;1.00;;
62863;SDS011;48954;59.950;11.014;2023-06-10T09:21:57;1.50;;;1.00;;
62863;SDS011;48954;59.950;11.014;2023-06-10T09:24:24;1.70;;;0.90;;
62863;SDS011;48954;59.950;11.014;2023-06-10T09:27:01;1.90;;;1.20;;
62863;SDS011;48954;59.950;11.014;2023-06-10T09:29:45;2.40;;;1.10;;
62863;SDS011;48954;59.950;11.014;2023-06-10T09:32:12;2.00;;;1.10;;
62863;SDS011;48954;59.950;11.014;2023-06-10T09:34:39;1.70;;;0.90;;
62863;SDS011;48954;59.950;11.014;2023-06-10T09:37:05;1.40;;;0.90;;
62863;SDS011;48954;59.950;11.014;2023-06-10T09:39:32;2.60;;;0.90;;
62863;SDS011;48954;59.950;11.014;2023-06-10T09:41:59;1.70;;;1.00;;
62863;SDS011;48954;59.950;11.014;2023-06-10T09:44:27;1.50;;;0.90;;
62863;SDS011;48954;59.950;11.014;2023-06-10T09:46:56;3.30;;;0.90;;
62863;SDS011;48954;59.950;11.014;2023-06-10T09:49:24;1.80;;;1.10;;
62863;SDS011;48954;59.950;11.014;2023-06-10T09:51:55;1.90;;;1.00;;
62863;SDS011;48954;59.950;11.014;2023-06-10T09:54:21;3.30;;;1.10;;
62863;SDS011;48954;59.950;11.014;2023-06-10T09:56:51;1.40;;;0.90;;
62863;SDS011;48954;59.950;11.014;2023-06-10T09:59:51;2.30;;;1.00;;
62863;SDS011;48954;59.950;11.014;2023-06-10T10:02:16;1.80;;;0.90;;
62863;SDS011;48954;59.950;11.014;2023-06-10T10:04:43;2.00;;;0.90;;
62863;SDS011;48954;59.950;11.014;2023-06-10T10:07:10;1.90;;;1.10;;
62863;SDS011;48954;59.950;11.014;2023-06-10T10:09:38;2.20;;;1.00;;
62863;SDS011;48954;59.950;11.014;2023-06-10T10:12:10;1.60;;;0.90;;
62863;SDS011;48954;59.950;11.014;2023-06-10T10:14:43;1.80;;;1.10;;
62863;SDS011;48954;59.950;11.014;2023-06-10T10:17:14;2.00;;;1.00;;
62863;SDS011;48954;59.950;11.014;2023-06-10T10:19:57;1.60;;;1.00;;
62863;SDS011;48954;59.950;11.014;2023-06-10T10:22:32;1.80;;;0.90;;
62863;SDS011;48954;59.950;11.014;2023-06-10T10:25:05;2.00;;;1.10;;
62863;SDS011;48954;59.950;11.014;2023-06-10T10:27:40;2.50;;;1.00;;
62863;SDS011;48954;59.950;11.014;2023-06-10T10:30:18;1.80;;;1.00;;
62863;SDS011;48954;59.950;11.014;2023-06-10T10:32:57;2.70;;;1.00;;
62863;SDS011;48954;59.950;11.014;2023-06-10T10:35:26;2.00;;;1.10;;
62863;SDS011;48954;59.950;11.014;2023-06-10T10:37:53;2.30;;;1.10;;
62863;SDS011;48954;59.950;11.014;2023-06-10T10:40:21;2.00;;;1.00;;
62863;SDS011;48954;59.950;11.014;2023-06-10T10:42:49;1.60;;;1.10;;
62863;SDS011;48954;59.950;11.014;2023-06-10T10:45:16;1.50;;;1.00;;
62863;SDS011;48954;59.950;11.014;2023-06-10T10:47:48;2.20;;;1.20;;
62863;SDS011;48954;59.950;11.014;2023-06-10T10:50:19;1.70;;;1.10;;
62863;SDS011;48954;59.950;11.014;2023-06-10T10:52:54;1.80;;;0.90;;
62863;SDS011;48954;59.950;11.014;2023-06-10T10:55:25;1.40;;;1.00;;
62863;SDS011;48954;59.950;11.014;2023-06-10T10:57:59;3.10;;;1.20;;
62863;SDS011;48954;59.950;11.014;2023-06-10T11:08:07;2.60;;;1.40;;
62863;SDS011;48954;59.950;11.014;2023-06-10T11:10:36;1.80;;;1.00;;
62863;SDS011;48954;59.950;11.014;2023-06-10T11:13:18;1.50;;;0.90;;
62863;SDS011;48954;59.950;11.014;2023-06-10T11:15:47;2.60;;;1.00;;
62863;SDS011;48954;59.950;11.014;2023-06-10T11:20:56;2.40;;;1.00;;
62863;SDS011;48954;59.950;11.014;2023-06-10T11:28:36;2.20;;;1.40;;
62863;SDS011;48954;59.950;11.014;2023-06-10T11:31:03;2.00;;;1.10;;
62863;SDS011;48954;59.950;11.014;2023-06-10T11:33:30;1.80;;;1.20;;
62863;SDS011;48954;59.950;11.014;2023-06-10T11:35:58;2.40;;;1.00;;
62863;SDS011;48954;59.950;11.014;2023-06-10T11:38:24;1.70;;;1.20;;
62863;SDS011;48954;59.950;11.014;2023-06-10T11:40:51;2.10;;;1.10;;
62863;SDS011;48954;59.950;11.014;2023-06-10T11:43:18;2.40;;;1.20;;
62863;SDS011;48954;59.950;11.014;2023-06-10T11:45:45;2.40;;;1.10;;
62863;SDS011;48954;59.950;11.014;2023-06-10T11:48:12;3.10;;;1.30;;
62863;SDS011;48954;59.950;11.014;2023-06-10T11:50:39;3.10;;;1.00;;
62863;SDS011;48954;59.950;11.014;2023-06-10T11:53:07;2.00;;;1.10;;
62863;SDS011;48954;59.950;11.014;2023-06-10T11:55:44;1.80;;;1.10;;
62863;SDS011;48954;59.950;11.014;2023-06-10T11:58:13;1.80;;;1.20;;
62863;SDS011;48954;59.950;11.014;2023-06-10T12:00:44;1.60;;;0.90;;
62863;SDS011;48954;59.950;11.014;2023-06-10T12:03:15;1.90;;;1.30;;
62863;SDS011;48954;59.950;11.014;2023-06-10T12:08:25;2.20;;;1.40;;
62863;SDS011;48954;59.950;11.014;2023-06-10T12:10:53;1.80;;;1.00;;
62863;SDS011;48954;59.950;11.014;2023-06-10T12:13:20;1.80;;;1.10;;
62863;SDS011;48954;59.950;11.014;2023-06-10T12:15:47;1.70;;;1.10;;
62863;SDS011;48954;59.950;11.014;2023-06-10T12:18:20;2.10;;;0.90;;
62863;SDS011;48954;59.950;11.014;2023-06-10T12:20:48;3.00;;;1.00;;
62863;SDS011;48954;59.950;11.014;2023-06-10T12:23:15;1.90;;;1.20;;
62863;SDS011;48954;59.950;11.014;2023-06-10T12:25:49;2.30;;;1.30;;
62863;SDS011;48954;59.950;11.014;2023-06-10T12:28:17;1.80;;;1.20;;
62863;SDS011;48954;59.950;11.014;2023-06-10T12:30:46;1.90;;;1.20;;
62863;SDS011;48954;59.950;11.014;2023-06-10T12:33:16;2.20;;;1.00;;
62863;SDS011;48954;59.950;11.014;2023-06-10T12:35:47;2.10;;;1.20;;
62863;SDS011;48954;59.950;11.014;2023-06-10T12:38:15;2.10;;;1.20;;
62863;SDS011;48954;59.950;11.014;2023-06-10T12:40:50;1.90;;;1.10;;
62863;SDS011;48954;59.950;11.014;2023-06-10T12:43:20;2.40;;;1.30;;
62863;SDS011;48954;59.950;11.014;2023-06-10T12:45:48;1.90;;;1.10;;
62863;SDS011;48954;59.950;11.014;2023-06-10T12:48:22;3.10;;;1.20;;
62863;SDS011;48954;59.950;11.014;2023-06-10T12:50:54;1.30;;;0.90;;
62863;SDS011;48954;59.950;11.014;2023-06-10T12:53:23;2.40;;;1.40;;
62863;SDS011;48954;59.950;11.014;2023-06-10T12:55:50;2.20;;;1.00;;
62863;SDS011;48954;59.950;11.014;2023-06-10T12:58:17;3.30;;;1.20;;
62863;SDS011;48954;59.950;11.014;2023-06-10T13:00:45;2.50;;;0.90;;
62863;SDS011;48954;59.950;11.014;2023-06-10T13:03:12;2.10;;;1.10;;
62863;SDS011;48954;59.950;11.014;2023-06-10T13:05:39;2.60;;;1.20;;
62863;SDS011;48954;59.950;11.014;2023-06-10T13:08:08;2.30;;;0.90;;
62863;SDS011;48954;59.950;11.014;2023-06-10T13:10:35;3.20;;;1.30;;
62863;SDS011;48954;59.950;11.014;2023-06-10T13:13:02;1.80;;;1.10;;
62863;SDS011;48954;59.950;11.014;2023-06-10T13:15:30;2.40;;;1.50;;
62863;SDS011;48954;59.950;11.014;2023-06-10T13:17:56;2.20;;;1.30;;
62863;SDS011;48954;59.950;11.014;2023-06-10T13:20:23;2.60;;;1.50;;
62863;SDS011;48954;59.950;11.014;2023-06-10T13:22:50;2.50;;;1.00;;
62863;SDS011;48954;59.950;11.014;2023-06-10T13:25:16;1.90;;;1.10;;
62863;SDS011;48954;59.950;11.014;2023-06-10T13:27:43;2.80;;;1.30;;
62863;SDS011;48954;59.950;11.014;2023-06-10T13:30:10;1.80;;;1.10;;
62863;SDS011;48954;59.950;11.014;2023-06-10T13:32:37;2.20;;;1.10;;
62863;SDS011;48954;59.950;11.014;2023-06-10T13:35:03;1.70;;;0.90;;
62863;SDS011;48954;59.950;11.014;2023-06-10T13:37:30;2.80;;;1.40;;
62863;SDS011;48954;59.950;11.014;2023-06-10T13:39:57;1.50;;;1.00;;
62863;SDS011;48954;59.950;11.014;2023-06-10T13:42:24;1.60;;;0.90;;
62863;SDS011;48954;59.950;11.014;2023-06-10T13:44:50;2.00;;;1.30;;
62863;SDS011;48954;59.950;11.014;2023-06-10T13:47:17;2.00;;;1.10;;
62863;SDS011;48954;59.950;11.014;2023-06-10T13:49:44;1.80;;;1.00;;
62863;SDS011;48954;59.950;11.014;2023-06-10T13:52:10;2.00;;;1.50;;
62863;SDS011;48954;59.950;11.014;2023-06-10T13:54:39;2.00;;;1.30;;
62863;SDS011;48954;59.950;11.014;2023-06-10T13:57:09;2.50;;;1.20;;
62863;SDS011;48954;59.950;11.014;2023-06-10T13:59:35;1.90;;;1.10;;
62863;SDS011;48954;59.950;11.014;2023-06-10T14:02:02;2.30;;;1.00;;
62863;SDS011;48954;59.950;11.014;2023-06-10T14:04:29;2.60;;;2.30;;
62863;SDS011;48954;59.950;11.014;2023-06-10T14:06:56;1.90;;;1.00;;
62863;SDS011;48954;59.950;11.014;2023-06-10T14:09:23;2.60;;;1.30;;
62863;SDS011;48954;59.950;11.014;2023-06-10T14:11:53;1.90;;;1.20;;
62863;SDS011;48954;59.950;11.014;2023-06-10T14:14:20;2.40;;;1.20;;
62863;SDS011;48954;59.950;11.014;2023-06-10T14:16:47;2.00;;;1.20;;
62863;SDS011;48954;59.950;11.014;2023-06-10T14:19:13;2.90;;;1.20;;
62863;SDS011;48954;59.950;11.014;2023-06-10T14:21:40;1.50;;;1.00;;
62863;SDS011;48954;59.950;11.014;2023-06-10T14:24:07;2.00;;;1.00;;
62863;SDS011;48954;59.950;11.014;2023-06-10T14:26:36;3.80;;;1.20;;
62863;SDS011;48954;59.950;11.014;2023-06-10T14:29:02;1.90;;;1.10;;
62863;SDS011;48954;59.950;11.014;2023-06-10T14:31:29;1.80;;;1.10;;
62863;SDS011;48954;59.950;11.014;2023-06-10T14:33:56;1.70;;;1.10;;
62863;SDS011;48954;59.950;11.014;2023-06-10T14:36:26;2.10;;;1.30;;
62863;SDS011;48954;59.950;11.014;2023-06-10T14:38:53;2.40;;;1.40;;
62863;SDS011;48954;59.950;11.014;2023-06-10T14:41:21;3.00;;;1.20;;
62863;SDS011;48954;59.950;11.014;2023-06-10T14:43:47;2.80;;;1.40;;
62863;SDS011;48954;59.950;11.014;2023-06-10T14:46:14;2.40;;;1.20;;
62863;SDS011;48954;59.950;11.014;2023-06-10T14:48:40;2.10;;;1.40;;
62863;SDS011;48954;59.950;11.014;2023-06-10T14:51:07;2.60;;;1.30;;
62863;SDS011;48954;59.950;11.014;2023-06-10T14:53:33;2.70;;;1.40;;
62863;SDS011;48954;59.950;11.014;2023-06-10T14:56:00;1.70;;;1.10;;
62863;SDS011;48954;59.950;11.014;2023-06-10T14:58:26;2.60;;;1.30;;
62863;SDS011;48954;59.950;11.014;2023-06-10T15:00:53;2.40;;;1.30;;
62863;SDS011;48954;59.950;11.014;2023-06-10T15:03:19;2.60;;;1.30;;
62863;SDS011;48954;59.950;11.014;2023-06-10T15:05:46;2.30;;;1.50;;
62863;SDS011;48954;59.950;11.014;2023-06-10T15:08:12;1.80;;;1.20;;